Latest Coastal Weather Observations for Adele Island

IDW60701

Issued at 4:32 am WST Sunday 31 May 2015 (issued every 10 minutes, with the page automatically refreshed every 10 minutes)

About coastal observations | Map of coastal stations | Coastal observations for WA | Marine services | Other Formats
Station Details ID: 200735 Name: ADELE ISLAND Lat: -15.51 Lon: 123.16 Height: 4.6 m
Data from the previous 72 hours. | See also: Recent months for locations in Western Australia
Date/Time
WST
Temp

°C
Wind Pressure Rain
since 9am
mm
Weather Cloud Vis
km
Sea
Height
m
Swell
Dir
 
Speed
knots
Gust
knots
hPa Trend Height
m
Period
s
Dir
31/04:30am 26.9 SE 10 12 1011.6 - - - - - - - - -
31/04:00am 26.6 SE 11 13 1011.6 - - - - - - - - -
31/03:30am 26.5 SSE 9 11 1011.7 - - - - - - - - -
31/03:00am 26.4 SSE 9 10 1011.6 - - - - - - - - -
31/02:30am 27.1 SSE 11 14 1011.7 - - - - - - - - -
31/02:00am 27.1 S 11 14 1011.9 - - - - - - - - -
31/01:30am 27.3 S 10 12 1012.1 - - - - - - - - -
31/01:00am 27.4 SSW 11 14 1012.6 - - - - - - - - -
31/12:30am 27.1 SSW 10 13 1012.8 - - - - - - - - -
31/12:00am 27.0 SSW 11 14 1012.9 - - - - - - - - -
 
Date/Time
WST
Temp

°C
Wind Pressure Rain
since 9am
mm
Weather Cloud Vis
km
Sea
Height
m
Swell
Dir
 
Speed
knots
Gust
knots
hPa Trend Height
m
Period
s
Dir
30/11:30pm 27.1 SSW 11 14 1013.0 - - - - - - - - -
30/11:00pm 27.2 SSW 12 15 1013.1 - - - - - - - - -
30/10:30pm 27.6 SSW 11 14 1013.4 - - - - - - - - -
30/10:00pm 27.7 SSW 10 12 1013.7 - - - - - - - - -
30/09:30pm 27.9 SW 10 11 1013.8 - - - - - - - - -
30/09:00pm 27.6 SW 9 11 1013.8 - - - - - - - - -
30/08:30pm 27.2 SSW 8 9 1014.0 - - - - - - - - -
30/08:00pm 27.2 SSW 7 8 1014.0 - - - - - - - - -
30/07:30pm 27.1 SSW 7 8 1013.8 - - - - - - - - -
30/07:00pm 27.5 SSW 8 9 1013.5 - - - - - - - - -
30/06:30pm 27.5 SSW 6 7 1013.3 - - - - - - - - -
30/06:00pm 27.6 SSW 6 7 1012.8 - - - - - - - - -
30/05:30pm 27.3 SSW 6 6 1012.5 - - - - - - - - -
30/05:00pm 27.7 SSW 6 7 1012.1 - - - - - - - - -
30/04:30pm 28.0 SSW 6 7 1011.9 - - - - - - - - -
30/04:00pm 28.3 SSW 6 7 1011.6 - - - - - - - - -
30/03:30pm 28.5 SSW 7 8 1011.5 - - - - - - - - -
30/03:00pm 28.8 SSW 7 8 1011.6 - - - - - - - - -
30/02:30pm 29.5 SSE 5 7 1011.5 - - - - - - - - -
30/02:00pm 29.3 SE 6 8 1011.7 - - - - - - - - -
30/01:30pm 29.1 SSE 7 9 1011.9 - - - - - - - - -
30/01:00pm 29.0 SSE 8 11 1012.1 - - - - - - - - -
30/12:30pm 28.7 SSE 9 12 1012.5 - - - - - - - - -
30/12:00pm 29.0 SSE 9 13 1013.0 - - - - - - - - -
30/11:30am 29.0 SE 9 12 1013.4 - - - - - - - - -
30/11:00am 28.6 SSE 10 13 1013.8 - - - - - - - - -
30/10:30am 29.2 SSE 9 14 1014.2 - - - - - - - - -
30/10:00am 29.0 SE 8 11 1014.5 - - - - - - - - -
30/09:30am 28.9 SSE 9 11 1014.8 - - - - - - - - -
30/09:00am 28.8 S 7 9 1014.9 - - - - - - - - -
30/08:30am 28.2 S 8 9 1014.9 - - - - - - - - -
30/08:00am 27.4 S 7 10 1014.9 - - - - - - - - -
30/07:30am 27.5 S 6 7 1014.7 - - - - - - - - -
30/07:00am 26.6 S 6 7 1014.6 - - - - - - - - -
30/06:30am 26.3 S 7 7 1014.3 - - - - - - - - -
30/06:00am 26.6 SSE 8 8 1014.3 - - - - - - - - -
30/05:30am 26.5 S 8 9 1014.3 - - - - - - - - -
30/05:00am 26.6 SSE 8 9 1014.2 - - - - - - - - -
30/04:30am 27.1 SSE 7 8 1014.2 - - - - - - - - -
30/04:00am 26.7 SSE 7 7 1014.2 - - - - - - - - -
30/03:30am 26.8 SSE 7 9 1014.0 - - - - - - - - -
30/03:00am 26.7 SE 7 8 1013.9 - - - - - - - - -
30/02:30am 27.1 SE 8 8 1014.1 - - - - - - - - -
30/02:00am 27.5 SSE 7 8 1014.1 - - - - - - - - -
30/01:30am 27.5 SE 6 7 1014.3 - - - - - - - - -
30/01:00am 27.3 SSE 7 7 1014.4 - - - - - - - - -
30/12:30am 27.1 SSE 7 7 1014.6 - - - - - - - - -
30/12:00am 27.6 SSE 7 8 1014.9 - - - - - - - - -
 
Date/Time
WST
Temp

°C
Wind Pressure Rain
since 9am
mm
Weather Cloud Vis
km
Sea
Height
m
Swell
Dir
 
Speed
knots
Gust
knots
hPa Trend Height
m
Period
s
Dir
29/11:30pm 27.4 SE 5 6 1015.0 - - - - - - - - -
29/11:00pm 27.7 S 7 7 1015.2 - - - - - - - - -
29/10:30pm 27.6 S 6 8 1015.2 - - - - - - - - -
29/10:00pm 27.6 S 6 6 1015.1 - - - - - - - - -
29/09:30pm 28.3 SSW 6 7 1015.2 - - - - - - - - -
29/09:00pm 28.0 CALM 0 4 1015.1 - - - - - - - - -
29/08:30pm 28.2 NE 3 5 1015.0 - - - - - - - - -
29/08:00pm 28.1 E 4 5 1014.9 - - - - - - - - -
29/07:30pm 28.1 E 4 5 1014.7 - - - - - - - - -
29/07:00pm 28.0 E 5 5 1014.4 - - - - - - - - -
29/06:30pm 27.8 NE 4 4 1013.9 - - - - - - - - -
29/06:00pm 28.6 NE 4 4 1013.6 - - - - - - - - -
29/05:30pm 28.8 NNE 3 3 1013.3 - - - - - - - - -
29/05:00pm 29.2 N 2 4 1012.8 - - - - - - - - -
29/04:30pm 29.1 N 3 3 1012.4 - - - - - - - - -
29/04:00pm 29.7 N 3 4 1012.3 - - - - - - - - -
29/03:30pm 29.7 NE 4 5 1012.3 - - - - - - - - -
29/03:00pm 30.3 SSE 3 6 1012.1 - - - - - - - - -
29/02:30pm 29.9 ESE 5 8 1012.1 - - - - - - - - -
29/02:00pm 29.3 SW 7 9 1012.3 - - - - - - - - -
29/01:30pm 28.9 SSW 8 11 1012.3 - - - - - - - - -
29/01:00pm 28.8 SSW 10 13 1012.6 - - - - - - - - -
29/12:30pm 28.9 SSW 12 14 1013.1 - - - - - - - - -
29/12:00pm 29.0 SW 11 13 1013.5 - - - - - - - - -
29/11:30am 28.9 SW 10 13 1013.9 - - - - - - - - -
29/11:00am 29.3 S 9 12 1014.2 - - - - - - - - -
29/10:30am 28.9 SSE 8 10 1014.5 - - - - - - - - -
29/10:00am 29.4 S 9 13 1014.9 - - - - - - - - -
29/09:30am 28.7 S 8 11 1015.0 - - - - - - - - -
29/09:00am 28.8 SSE 9 11 1015.2 - - - - - - - - -
29/08:30am 28.7 S 8 11 1015.3 - - - - - - - - -
29/08:00am 28.3 E 5 7 1015.0 - - - - - - - - -
29/07:30am 27.1 SSE 4 5 1014.8 - - - - - - - - -
29/07:00am 27.2 SSE 6 7 1014.2 - - - - - - - - -
29/06:30am 27.1 S 6 7 1013.8 - - - - - - - - -
29/06:00am 26.9 S 5 6 1013.3 - - - - - - - - -
29/05:30am 26.7 SE 6 6 1013.3 - - - - - - - - -
29/05:00am 26.7 SSE 6 7 1013.2 - - - - - - - - -
29/04:30am 26.3 ESE 5 6 1012.9 - - - - - - - - -
29/04:00am 26.5 SE 5 6 1012.9 - - - - - - - - -
29/03:30am 26.1 SSE 8 9 1012.7 - - - - - - - - -
29/03:00am 26.4 S 9 11 1012.7 - - - - - - - - -
29/02:30am 27.5 S 5 5 1012.7 - - - - - - - - -
29/02:00am 27.9 SSW 5 6 1012.8 - - - - - - - - -
29/01:30am 28.0 WSW 5 5 1012.9 - - - - - - - - -
29/01:00am 27.9 WSW 4 5 1013.1 - - - - - - - - -
29/12:30am 28.1 WSW 5 6 1013.3 - - - - - - - - -
29/12:00am 28.2 SW 6 6 1013.5 - - - - - - - - -
 
Date/Time
WST
Temp

°C
Wind Pressure Rain
since 9am
mm
Weather Cloud Vis
km
Sea
Height
m
Swell
Dir
 
Speed
knots
Gust
knots
hPa Trend Height
m
Period
s
Dir
28/11:30pm 28.1 SW 5 6 1013.7 - - - - - - - - -
28/11:00pm 28.2 SSW 6 7 1014.0 - - - - - - - - -
28/10:30pm 27.9 S 7 8 1014.2 - - - - - - - - -
28/10:00pm 27.5 S 7 8 1014.4 - - - - - - - - -
28/09:30pm 27.9 S 7 8 1014.5 - - - - - - - - -
28/09:00pm 27.7 SSW 6 7 1014.6 - - - - - - - - -
28/08:30pm 28.0 S 8 8 1014.5 - - - - - - - - -
28/08:00pm 27.9 SSW 4 6 1014.2 - - - - - - - - -
28/07:30pm 28.1 CALM 0 0 1013.9 - - - - - - - - -
28/07:00pm 27.9 CALM 0 0 1013.6 - - - - - - - - -
28/06:30pm 27.8 CALM 0 1 1013.3 - - - - - - - - -
28/06:00pm 27.8 CALM 0 2 1013.0 - - - - - - - - -
28/05:30pm 28.1 ESE 3 4 1012.7 - - - - - - - - -
28/05:00pm 28.7 ESE 3 4 1012.4 - - - - - - - - -
28/04:30pm 29.1 SE 5 6 1012.1 - - - - - - - - -
28/04:00pm 29.5 ESE 6 7 1012.0 - - - - - - - - -
28/03:30pm 29.5 SE 7 8 1011.9 - - - - - - - - -
28/03:00pm 29.4 SE 8 9 1011.7 - - - - - - - - -
28/02:30pm 29.7 SE 8 10 1011.7 - - - - - - - - -
28/02:00pm 29.5 SE 9 11 1011.8 - - - - - - - - -
28/01:30pm 29.5 SE 9 12 1012.2 - - - - - - - - -
28/01:00pm 29.3 ESE 10 12 1012.5 - - - - - - - - -
28/12:30pm 29.4 SE 11 13 1012.7 - - - - - - - - -
28/12:00pm 29.2 SE 11 13 1013.1 - - - - - - - - -
28/11:30am 28.9 SE 11 13 1013.6 - - - - - - - - -
28/11:00am 29.7 SE 11 13 1014.0 - - - - - - - - -
28/10:30am 29.1 SSE 12 15 1014.1 - - - - - - - - -
28/10:00am 29.2 SE 13 16 1014.4 - - - - - - - - -
28/09:30am 28.6 SSE 13 16 1014.7 - - - - - - - - -
28/09:00am 28.7 SSE 11 14 1014.7 - - - - - - - - -
28/08:30am 28.4 SSE 11 14 1014.5 - - - - - - - - -
28/08:00am 28.1 SSE 10 12 1014.3 - - - - - - - - -
28/07:30am 27.4 SSE 9 11 1014.1 - - - - - - - - -
28/07:00am 26.7 SSE 10 12 1014.1 - - - - - - - - -
28/06:30am 26.2 S 9 11 1013.6 - - - - - - - - -
28/06:00am 26.3 S 9 11 1013.3 - - - - - - - - -
28/05:30am 25.6 S 8 10 1013.2 - - - - - - - - -
28/05:00am 26.0 SSE 9 10 1013.0 - - - - - - - - -

Other Formats:

Comma delimited format used in spreadsheet applications
http://www.bom.gov.au/fwo/IDW60701/IDW60701.94210.axf

JavaScript Object Notation format (JSON) in row-major order
http://www.bom.gov.au/fwo/IDW60701/IDW60701.94210.json